sensor_id;sensor_type;location;lat;lon;timestamp;P1;durP1;ratioP1;P2;durP2;ratioP2
18449;SDS011;9354;50.194;7.690;2022-08-05T00:00:06;15.77;;;6.23;;
18449;SDS011;9354;50.194;7.690;2022-08-05T00:02:35;15.03;;;6.53;;
18449;SDS011;9354;50.194;7.690;2022-08-05T00:05:05;14.17;;;7.63;;
18449;SDS011;9354;50.194;7.690;2022-08-05T00:07:33;12.97;;;6.47;;
18449;SDS011;9354;50.194;7.690;2022-08-05T00:10:00;17.50;;;6.80;;
18449;SDS011;9354;50.194;7.690;2022-08-05T00:12:27;14.67;;;7.57;;
18449;SDS011;9354;50.194;7.690;2022-08-05T00:14:55;14.77;;;6.80;;
18449;SDS011;9354;50.194;7.690;2022-08-05T00:17:22;17.93;;;6.93;;
18449;SDS011;9354;50.194;7.690;2022-08-05T00:19:50;17.60;;;7.20;;
18449;SDS011;9354;50.194;7.690;2022-08-05T00:22:18;17.47;;;7.00;;
18449;SDS011;9354;50.194;7.690;2022-08-05T00:24:46;16.60;;;7.23;;
18449;SDS011;9354;50.194;7.690;2022-08-05T00:27:13;16.93;;;7.03;;
18449;SDS011;9354;50.194;7.690;2022-08-05T00:29:43;14.60;;;7.37;;
18449;SDS011;9354;50.194;7.690;2022-08-05T00:32:10;16.50;;;7.87;;
18449;SDS011;9354;50.194;7.690;2022-08-05T00:34:38;13.83;;;7.73;;
18449;SDS011;9354;50.194;7.690;2022-08-05T00:37:05;15.43;;;8.23;;
18449;SDS011;9354;50.194;7.690;2022-08-05T00:39:34;16.20;;;7.87;;
18449;SDS011;9354;50.194;7.690;2022-08-05T00:42:02;21.80;;;9.13;;
18449;SDS011;9354;50.194;7.690;2022-08-05T00:44:29;16.43;;;8.23;;
18449;SDS011;9354;50.194;7.690;2022-08-05T00:46:57;18.87;;;8.40;;
18449;SDS011;9354;50.194;7.690;2022-08-05T00:49:24;18.67;;;8.30;;
18449;SDS011;9354;50.194;7.690;2022-08-05T00:51:52;19.03;;;8.37;;
18449;SDS011;9354;50.194;7.690;2022-08-05T00:54:19;21.03;;;8.60;;
18449;SDS011;9354;50.194;7.690;2022-08-05T00:56:48;21.50;;;9.43;;
18449;SDS011;9354;50.194;7.690;2022-08-05T00:59:15;17.63;;;8.73;;
18449;SDS011;9354;50.194;7.690;2022-08-05T01:01:43;19.63;;;9.20;;
18449;SDS011;9354;50.194;7.690;2022-08-05T01:04:10;21.27;;;9.00;;
18449;SDS011;9354;50.194;7.690;2022-08-05T01:06:37;15.33;;;8.63;;
18449;SDS011;9354;50.194;7.690;2022-08-05T01:09:05;19.50;;;9.73;;
18449;SDS011;9354;50.194;7.690;2022-08-05T01:11:33;16.70;;;9.27;;
18449;SDS011;9354;50.194;7.690;2022-08-05T01:14:07;19.10;;;9.03;;
18449;SDS011;9354;50.194;7.690;2022-08-05T01:16:42;21.90;;;9.77;;
18449;SDS011;9354;50.194;7.690;2022-08-05T01:19:21;17.03;;;9.30;;
18449;SDS011;9354;50.194;7.690;2022-08-05T01:22:03;22.37;;;9.57;;
18449;SDS011;9354;50.194;7.690;2022-08-05T01:25:04;18.87;;;9.70;;
18449;SDS011;9354;50.194;7.690;2022-08-05T01:28:14;19.73;;;10.47;;
18449;SDS011;9354;50.194;7.690;2022-08-05T01:30:45;21.13;;;10.93;;
18449;SDS011;9354;50.194;7.690;2022-08-05T01:33:20;21.80;;;10.53;;
18449;SDS011;9354;50.194;7.690;2022-08-05T01:35:51;19.93;;;11.67;;
18449;SDS011;9354;50.194;7.690;2022-08-05T01:38:22;19.50;;;10.77;;
18449;SDS011;9354;50.194;7.690;2022-08-05T01:40:51;22.07;;;11.07;;
18449;SDS011;9354;50.194;7.690;2022-08-05T01:43:22;20.30;;;11.27;;
18449;SDS011;9354;50.194;7.690;2022-08-05T01:45:51;21.40;;;10.87;;
18449;SDS011;9354;50.194;7.690;2022-08-05T01:48:19;22.70;;;10.80;;
18449;SDS011;9354;50.194;7.690;2022-08-05T01:50:47;22.17;;;10.93;;
18449;SDS011;9354;50.194;7.690;2022-08-05T01:53:17;20.83;;;10.37;;
18449;SDS011;9354;50.194;7.690;2022-08-05T01:55:47;21.27;;;10.67;;
18449;SDS011;9354;50.194;7.690;2022-08-05T01:58:17;22.43;;;11.33;;
18449;SDS011;9354;50.194;7.690;2022-08-05T02:00:49;22.53;;;10.97;;
18449;SDS011;9354;50.194;7.690;2022-08-05T02:03:19;23.73;;;12.40;;
18449;SDS011;9354;50.194;7.690;2022-08-05T02:05:51;26.67;;;12.03;;
18449;SDS011;9354;50.194;7.690;2022-08-05T02:08:19;19.10;;;10.90;;
18449;SDS011;9354;50.194;7.690;2022-08-05T02:10:48;20.33;;;10.23;;
18449;SDS011;9354;50.194;7.690;2022-08-05T02:13:19;24.33;;;11.10;;
18449;SDS011;9354;50.194;7.690;2022-08-05T02:15:57;21.53;;;10.40;;
18449;SDS011;9354;50.194;7.690;2022-08-05T02:18:30;22.23;;;10.00;;
18449;SDS011;9354;50.194;7.690;2022-08-05T02:21:02;22.10;;;10.20;;
18449;SDS011;9354;50.194;7.690;2022-08-05T02:23:37;24.03;;;11.17;;
18449;SDS011;9354;50.194;7.690;2022-08-05T02:26:08;22.93;;;11.57;;
18449;SDS011;9354;50.194;7.690;2022-08-05T02:28:39;20.27;;;10.80;;
18449;SDS011;9354;50.194;7.690;2022-08-05T02:31:10;20.63;;;10.70;;
18449;SDS011;9354;50.194;7.690;2022-08-05T02:33:42;24.40;;;11.37;;
18449;SDS011;9354;50.194;7.690;2022-08-05T02:36:15;21.70;;;11.97;;
18449;SDS011;9354;50.194;7.690;2022-08-05T02:38:46;23.47;;;12.50;;
18449;SDS011;9354;50.194;7.690;2022-08-05T02:41:14;23.67;;;11.23;;
18449;SDS011;9354;50.194;7.690;2022-08-05T02:43:43;19.10;;;11.27;;
18449;SDS011;9354;50.194;7.690;2022-08-05T02:46:14;22.37;;;10.77;;
18449;SDS011;9354;50.194;7.690;2022-08-05T02:48:43;24.93;;;11.50;;
18449;SDS011;9354;50.194;7.690;2022-08-05T02:51:11;24.90;;;12.47;;
18449;SDS011;9354;50.194;7.690;2022-08-05T02:53:41;23.83;;;12.60;;
18449;SDS011;9354;50.194;7.690;2022-08-05T02:56:09;24.77;;;12.57;;
18449;SDS011;9354;50.194;7.690;2022-08-05T02:58:38;25.13;;;12.47;;
18449;SDS011;9354;50.194;7.690;2022-08-05T03:01:06;23.17;;;12.30;;
18449;SDS011;9354;50.194;7.690;2022-08-05T03:03:39;25.70;;;12.37;;
18449;SDS011;9354;50.194;7.690;2022-08-05T03:06:08;19.23;;;12.10;;
18449;SDS011;9354;50.194;7.690;2022-08-05T03:08:37;24.27;;;13.17;;
18449;SDS011;9354;50.194;7.690;2022-08-05T03:11:15;26.03;;;12.97;;
18449;SDS011;9354;50.194;7.690;2022-08-05T03:13:43;25.97;;;13.07;;
18449;SDS011;9354;50.194;7.690;2022-08-05T03:16:11;31.03;;;14.53;;
18449;SDS011;9354;50.194;7.690;2022-08-05T03:18:40;32.13;;;14.07;;
18449;SDS011;9354;50.194;7.690;2022-08-05T03:21:07;27.93;;;15.17;;
18449;SDS011;9354;50.194;7.690;2022-08-05T03:23:36;27.47;;;14.63;;
18449;SDS011;9354;50.194;7.690;2022-08-05T03:26:05;28.63;;;14.43;;
18449;SDS011;9354;50.194;7.690;2022-08-05T03:28:33;28.00;;;14.47;;
18449;SDS011;9354;50.194;7.690;2022-08-05T03:31:01;30.87;;;15.47;;
18449;SDS011;9354;50.194;7.690;2022-08-05T03:33:29;27.23;;;15.47;;
18449;SDS011;9354;50.194;7.690;2022-08-05T03:35:58;31.93;;;13.90;;
18449;SDS011;9354;50.194;7.690;2022-08-05T03:38:27;26.17;;;12.53;;
18449;SDS011;9354;50.194;7.690;2022-08-05T03:40:54;21.03;;;10.90;;
18449;SDS011;9354;50.194;7.690;2022-08-05T03:43:21;19.27;;;7.67;;
18449;SDS011;9354;50.194;7.690;2022-08-05T03:45:50;13.20;;;7.20;;
18449;SDS011;9354;50.194;7.690;2022-08-05T03:48:18;15.83;;;5.97;;
18449;SDS011;9354;50.194;7.690;2022-08-05T03:50:48;16.07;;;5.63;;
18449;SDS011;9354;50.194;7.690;2022-08-05T03:53:22;19.00;;;8.40;;
18449;SDS011;9354;50.194;7.690;2022-08-05T03:55:57;23.57;;;9.87;;
18449;SDS011;9354;50.194;7.690;2022-08-05T03:58:28;15.23;;;7.60;;
18449;SDS011;9354;50.194;7.690;2022-08-05T04:01:01;12.37;;;5.83;;
18449;SDS011;9354;50.194;7.690;2022-08-05T04:03:33;10.93;;;5.33;;
18449;SDS011;9354;50.194;7.690;2022-08-05T04:06:02;6.33;;;3.90;;
18449;SDS011;9354;50.194;7.690;2022-08-05T04:08:32;6.27;;;3.00;;
18449;SDS011;9354;50.194;7.690;2022-08-05T04:11:01;7.47;;;3.70;;
18449;SDS011;9354;50.194;7.690;2022-08-05T04:13:29;9.17;;;4.50;;
18449;SDS011;9354;50.194;7.690;2022-08-05T04:15:57;6.97;;;4.40;;
18449;SDS011;9354;50.194;7.690;2022-08-05T04:18:25;8.57;;;4.50;;
18449;SDS011;9354;50.194;7.690;2022-08-05T04:20:53;11.57;;;4.60;;
18449;SDS011;9354;50.194;7.690;2022-08-05T04:23:22;11.57;;;4.60;;
18449;SDS011;9354;50.194;7.690;2022-08-05T04:25:53;10.30;;;4.77;;
18449;SDS011;9354;50.194;7.690;2022-08-05T04:28:20;8.90;;;4.50;;
18449;SDS011;9354;50.194;7.690;2022-08-05T04:30:48;11.17;;;4.00;;
18449;SDS011;9354;50.194;7.690;2022-08-05T04:33:15;9.67;;;4.63;;
18449;SDS011;9354;50.194;7.690;2022-08-05T04:35:43;5.63;;;3.70;;
18449;SDS011;9354;50.194;7.690;2022-08-05T04:38:11;9.03;;;4.03;;
18449;SDS011;9354;50.194;7.690;2022-08-05T04:40:39;9.10;;;4.30;;
18449;SDS011;9354;50.194;7.690;2022-08-05T04:43:08;8.80;;;4.73;;
18449;SDS011;9354;50.194;7.690;2022-08-05T04:45:36;10.70;;;4.67;;
18449;SDS011;9354;50.194;7.690;2022-08-05T04:48:04;8.80;;;4.33;;
18449;SDS011;9354;50.194;7.690;2022-08-05T04:50:37;9.33;;;3.90;;
18449;SDS011;9354;50.194;7.690;2022-08-05T04:53:05;10.37;;;5.10;;
18449;SDS011;9354;50.194;7.690;2022-08-05T04:55:33;7.77;;;4.53;;
18449;SDS011;9354;50.194;7.690;2022-08-05T04:58:01;9.43;;;4.53;;
18449;SDS011;9354;50.194;7.690;2022-08-05T05:00:31;9.87;;;4.80;;
18449;SDS011;9354;50.194;7.690;2022-08-05T05:03:02;9.17;;;4.53;;
18449;SDS011;9354;50.194;7.690;2022-08-05T05:05:31;7.80;;;4.00;;
18449;SDS011;9354;50.194;7.690;2022-08-05T05:07:59;9.67;;;5.73;;
18449;SDS011;9354;50.194;7.690;2022-08-05T05:10:27;9.83;;;6.60;;
18449;SDS011;9354;50.194;7.690;2022-08-05T05:12:55;8.20;;;5.50;;
18449;SDS011;9354;50.194;7.690;2022-08-05T05:15:23;11.27;;;5.47;;
18449;SDS011;9354;50.194;7.690;2022-08-05T05:17:52;13.07;;;6.10;;
18449;SDS011;9354;50.194;7.690;2022-08-05T05:20:19;10.07;;;6.00;;
18449;SDS011;9354;50.194;7.690;2022-08-05T05:22:47;10.07;;;6.30;;
18449;SDS011;9354;50.194;7.690;2022-08-05T05:25:14;15.57;;;7.40;;
18449;SDS011;9354;50.194;7.690;2022-08-05T05:27:42;11.73;;;7.17;;
18449;SDS011;9354;50.194;7.690;2022-08-05T05:30:10;17.60;;;7.43;;
18449;SDS011;9354;50.194;7.690;2022-08-05T05:32:38;13.67;;;6.83;;
18449;SDS011;9354;50.194;7.690;2022-08-05T05:35:07;12.60;;;6.33;;
18449;SDS011;9354;50.194;7.690;2022-08-05T05:37:44;13.63;;;7.10;;
18449;SDS011;9354;50.194;7.690;2022-08-05T05:40:13;11.63;;;6.80;;
18449;SDS011;9354;50.194;7.690;2022-08-05T05:42:41;11.00;;;6.20;;
18449;SDS011;9354;50.194;7.690;2022-08-05T05:45:08;9.83;;;6.50;;
18449;SDS011;9354;50.194;7.690;2022-08-05T05:47:36;10.17;;;6.40;;
18449;SDS011;9354;50.194;7.690;2022-08-05T05:50:06;13.43;;;6.43;;
18449;SDS011;9354;50.194;7.690;2022-08-05T05:52:34;19.47;;;6.10;;
18449;SDS011;9354;50.194;7.690;2022-08-05T05:55:02;11.00;;;5.90;;
18449;SDS011;9354;50.194;7.690;2022-08-05T05:57:33;10.10;;;5.50;;
18449;SDS011;9354;50.194;7.690;2022-08-05T06:00:00;8.10;;;5.37;;
18449;SDS011;9354;50.194;7.690;2022-08-05T06:02:29;12.07;;;6.63;;
18449;SDS011;9354;50.194;7.690;2022-08-05T06:04:57;12.70;;;5.63;;
18449;SDS011;9354;50.194;7.690;2022-08-05T06:07:26;11.00;;;6.00;;
18449;SDS011;9354;50.194;7.690;2022-08-05T06:09:53;9.10;;;5.77;;
18449;SDS011;9354;50.194;7.690;2022-08-05T06:12:20;9.93;;;5.67;;
18449;SDS011;9354;50.194;7.690;2022-08-05T06:14:48;8.53;;;5.90;;
18449;SDS011;9354;50.194;7.690;2022-08-05T06:17:15;12.50;;;5.90;;
18449;SDS011;9354;50.194;7.690;2022-08-05T06:19:43;10.93;;;5.70;;
18449;SDS011;9354;50.194;7.690;2022-08-05T06:22:10;10.60;;;5.70;;
18449;SDS011;9354;50.194;7.690;2022-08-05T06:24:41;7.80;;;4.37;;
18449;SDS011;9354;50.194;7.690;2022-08-05T06:27:08;8.50;;;4.53;;
18449;SDS011;9354;50.194;7.690;2022-08-05T06:29:36;8.40;;;5.50;;
18449;SDS011;9354;50.194;7.690;2022-08-05T06:32:03;9.53;;;5.70;;
18449;SDS011;9354;50.194;7.690;2022-08-05T06:34:31;11.47;;;5.57;;
18449;SDS011;9354;50.194;7.690;2022-08-05T06:36:58;12.60;;;6.03;;
18449;SDS011;9354;50.194;7.690;2022-08-05T06:39:26;9.80;;;5.57;;
18449;SDS011;9354;50.194;7.690;2022-08-05T06:41:56;16.40;;;6.07;;
18449;SDS011;9354;50.194;7.690;2022-08-05T06:44:25;11.47;;;5.40;;
18449;SDS011;9354;50.194;7.690;2022-08-05T06:46:53;8.77;;;5.27;;
18449;SDS011;9354;50.194;7.690;2022-08-05T06:49:21;8.67;;;5.40;;
18449;SDS011;9354;50.194;7.690;2022-08-05T06:51:48;9.53;;;4.90;;
18449;SDS011;9354;50.194;7.690;2022-08-05T06:54:16;9.33;;;5.10;;
18449;SDS011;9354;50.194;7.690;2022-08-05T06:56:43;9.70;;;4.97;;
18449;SDS011;9354;50.194;7.690;2022-08-05T06:59:12;8.03;;;5.60;;
18449;SDS011;9354;50.194;7.690;2022-08-05T07:01:39;9.37;;;4.53;;
18449;SDS011;9354;50.194;7.690;2022-08-05T07:04:07;11.07;;;4.97;;
18449;SDS011;9354;50.194;7.690;2022-08-05T07:06:34;10.70;;;5.00;;
18449;SDS011;9354;50.194;7.690;2022-08-05T07:09:02;7.23;;;4.57;;
18449;SDS011;9354;50.194;7.690;2022-08-05T07:11:31;6.13;;;4.27;;
18449;SDS011;9354;50.194;7.690;2022-08-05T07:13:58;6.07;;;3.83;;
18449;SDS011;9354;50.194;7.690;2022-08-05T07:16:45;4.77;;;3.33;;
18449;SDS011;9354;50.194;7.690;2022-08-05T07:19:15;5.90;;;3.50;;
18449;SDS011;9354;50.194;7.690;2022-08-05T07:21:44;7.43;;;3.07;;
18449;SDS011;9354;50.194;7.690;2022-08-05T07:24:11;5.17;;;3.00;;
18449;SDS011;9354;50.194;7.690;2022-08-05T07:26:39;6.13;;;3.43;;
18449;SDS011;9354;50.194;7.690;2022-08-05T07:29:07;10.37;;;3.23;;
18449;SDS011;9354;50.194;7.690;2022-08-05T07:31:35;7.17;;;3.67;;
18449;SDS011;9354;50.194;7.690;2022-08-05T07:34:04;7.17;;;3.40;;
18449;SDS011;9354;50.194;7.690;2022-08-05T07:36:32;6.47;;;3.13;;
18449;SDS011;9354;50.194;7.690;2022-08-05T07:39:00;8.23;;;3.60;;
18449;SDS011;9354;50.194;7.690;2022-08-05T07:41:28;6.67;;;3.43;;
18449;SDS011;9354;50.194;7.690;2022-08-05T07:43:56;4.43;;;3.10;;
18449;SDS011;9354;50.194;7.690;2022-08-05T07:46:24;5.10;;;3.20;;
18449;SDS011;9354;50.194;7.690;2022-08-05T07:48:53;6.37;;;3.10;;
18449;SDS011;9354;50.194;7.690;2022-08-05T07:51:23;3.73;;;2.90;;
18449;SDS011;9354;50.194;7.690;2022-08-05T07:53:51;4.03;;;3.20;;
18449;SDS011;9354;50.194;7.690;2022-08-05T07:56:18;3.50;;;2.60;;
18449;SDS011;9354;50.194;7.690;2022-08-05T07:58:46;7.83;;;3.00;;
18449;SDS011;9354;50.194;7.690;2022-08-05T08:01:13;5.57;;;2.57;;
18449;SDS011;9354;50.194;7.690;2022-08-05T08:03:40;5.13;;;3.00;;
18449;SDS011;9354;50.194;7.690;2022-08-05T08:06:08;5.43;;;2.87;;
18449;SDS011;9354;50.194;7.690;2022-08-05T08:08:37;6.97;;;2.90;;
18449;SDS011;9354;50.194;7.690;2022-08-05T08:11:04;6.00;;;3.00;;
18449;SDS011;9354;50.194;7.690;2022-08-05T08:13:32;3.20;;;2.67;;
18449;SDS011;9354;50.194;7.690;2022-08-05T08:15:59;5.60;;;3.27;;
18449;SDS011;9354;50.194;7.690;2022-08-05T08:18:26;5.70;;;3.20;;
18449;SDS011;9354;50.194;7.690;2022-08-05T08:20:54;6.97;;;3.03;;
18449;SDS011;9354;50.194;7.690;2022-08-05T08:23:21;4.90;;;3.20;;
18449;SDS011;9354;50.194;7.690;2022-08-05T08:25:50;6.90;;;3.57;;
18449;SDS011;9354;50.194;7.690;2022-08-05T08:28:17;6.27;;;3.60;;
18449;SDS011;9354;50.194;7.690;2022-08-05T08:30:45;7.23;;;3.30;;
18449;SDS011;9354;50.194;7.690;2022-08-05T08:33:12;5.90;;;3.30;;
18449;SDS011;9354;50.194;7.690;2022-08-05T08:35:39;6.43;;;3.40;;
18449;SDS011;9354;50.194;7.690;2022-08-05T08:38:07;5.47;;;3.57;;
18449;SDS011;9354;50.194;7.690;2022-08-05T08:40:34;8.20;;;3.77;;
18449;SDS011;9354;50.194;7.690;2022-08-05T08:43:04;7.13;;;3.27;;
18449;SDS011;9354;50.194;7.690;2022-08-05T08:45:33;6.63;;;3.37;;
18449;SDS011;9354;50.194;7.690;2022-08-05T08:48:03;7.80;;;3.77;;
18449;SDS011;9354;50.194;7.690;2022-08-05T08:50:32;8.40;;;3.40;;
18449;SDS011;9354;50.194;7.690;2022-08-05T08:53:03;6.87;;;3.63;;
18449;SDS011;9354;50.194;7.690;2022-08-05T08:55:32;6.20;;;3.53;;
18449;SDS011;9354;50.194;7.690;2022-08-05T08:58:00;7.20;;;3.83;;
18449;SDS011;9354;50.194;7.690;2022-08-05T09:00:29;6.53;;;3.67;;
18449;SDS011;9354;50.194;7.690;2022-08-05T09:02:57;5.50;;;3.67;;
18449;SDS011;9354;50.194;7.690;2022-08-05T09:05:24;4.93;;;3.13;;
18449;SDS011;9354;50.194;7.690;2022-08-05T09:07:52;5.80;;;3.30;;
18449;SDS011;9354;50.194;7.690;2022-08-05T09:10:20;5.00;;;3.43;;
18449;SDS011;9354;50.194;7.690;2022-08-05T09:12:47;5.73;;;3.80;;
18449;SDS011;9354;50.194;7.690;2022-08-05T09:15:15;5.83;;;3.93;;
18449;SDS011;9354;50.194;7.690;2022-08-05T09:17:44;6.57;;;3.80;;
18449;SDS011;9354;50.194;7.690;2022-08-05T09:20:12;7.90;;;3.90;;
18449;SDS011;9354;50.194;7.690;2022-08-05T09:25:30;4.97;;;3.37;;
18449;SDS011;9354;50.194;7.690;2022-08-05T09:28:04;5.50;;;3.90;;
18449;SDS011;9354;50.194;7.690;2022-08-05T09:30:36;9.07;;;3.57;;
18449;SDS011;9354;50.194;7.690;2022-08-05T09:33:05;8.50;;;4.07;;
18449;SDS011;9354;50.194;7.690;2022-08-05T09:35:32;6.87;;;4.10;;
18449;SDS011;9354;50.194;7.690;2022-08-05T09:38:01;5.63;;;3.60;;
18449;SDS011;9354;50.194;7.690;2022-08-05T09:40:33;5.17;;;3.57;;
18449;SDS011;9354;50.194;7.690;2022-08-05T09:43:02;8.33;;;4.00;;
18449;SDS011;9354;50.194;7.690;2022-08-05T09:45:38;7.90;;;3.90;;
18449;SDS011;9354;50.194;7.690;2022-08-05T09:48:24;5.30;;;3.80;;
18449;SDS011;9354;50.194;7.690;2022-08-05T09:50:54;6.93;;;3.77;;
18449;SDS011;9354;50.194;7.690;2022-08-05T09:53:23;6.93;;;4.13;;
18449;SDS011;9354;50.194;7.690;2022-08-05T09:55:51;5.27;;;3.80;;
18449;SDS011;9354;50.194;7.690;2022-08-05T09:58:21;6.73;;;3.93;;
18449;SDS011;9354;50.194;7.690;2022-08-05T10:00:52;5.63;;;3.90;;
18449;SDS011;9354;50.194;7.690;2022-08-05T10:03:21;8.20;;;4.40;;
18449;SDS011;9354;50.194;7.690;2022-08-05T10:06:06;8.10;;;4.47;;
18449;SDS011;9354;50.194;7.690;2022-08-05T10:08:36;6.47;;;4.23;;
18449;SDS011;9354;50.194;7.690;2022-08-05T10:11:04;19.03;;;10.53;;
18449;SDS011;9354;50.194;7.690;2022-08-05T10:13:40;17.17;;;9.63;;
18449;SDS011;9354;50.194;7.690;2022-08-05T10:18:54;18.13;;;12.77;;
18449;SDS011;9354;50.194;7.690;2022-08-05T10:21:23;21.83;;;14.17;;
18449;SDS011;9354;50.194;7.690;2022-08-05T10:23:51;25.30;;;15.00;;
18449;SDS011;9354;50.194;7.690;2022-08-05T10:26:20;27.87;;;16.47;;
18449;SDS011;9354;50.194;7.690;2022-08-05T10:28:47;26.73;;;17.50;;
18449;SDS011;9354;50.194;7.690;2022-08-05T10:31:15;26.07;;;17.67;;
18449;SDS011;9354;50.194;7.690;2022-08-05T10:33:43;29.33;;;17.87;;
18449;SDS011;9354;50.194;7.690;2022-08-05T10:36:12;23.73;;;17.17;;
18449;SDS011;9354;50.194;7.690;2022-08-05T10:38:43;24.03;;;16.10;;
18449;SDS011;9354;50.194;7.690;2022-08-05T10:41:16;27.20;;;17.23;;
18449;SDS011;9354;50.194;7.690;2022-08-05T10:43:48;24.07;;;15.87;;
18449;SDS011;9354;50.194;7.690;2022-08-05T10:46:19;22.17;;;15.33;;
18449;SDS011;9354;50.194;7.690;2022-08-05T10:48:48;23.50;;;15.03;;
18449;SDS011;9354;50.194;7.690;2022-08-05T10:51:16;23.77;;;14.70;;
18449;SDS011;9354;50.194;7.690;2022-08-05T10:53:53;19.70;;;13.53;;
18449;SDS011;9354;50.194;7.690;2022-08-05T10:56:22;24.00;;;14.67;;
18449;SDS011;9354;50.194;7.690;2022-08-05T10:59:00;17.93;;;13.07;;
18449;SDS011;9354;50.194;7.690;2022-08-05T11:01:30;18.57;;;12.57;;
18449;SDS011;9354;50.194;7.690;2022-08-05T11:04:03;18.07;;;11.93;;
18449;SDS011;9354;50.194;7.690;2022-08-05T11:06:33;17.90;;;12.77;;
18449;SDS011;9354;50.194;7.690;2022-08-05T11:09:23;19.33;;;12.00;;
18449;SDS011;9354;50.194;7.690;2022-08-05T11:11:51;17.60;;;11.77;;
18449;SDS011;9354;50.194;7.690;2022-08-05T11:14:23;20.07;;;11.70;;
18449;SDS011;9354;50.194;7.690;2022-08-05T11:19:59;17.50;;;12.30;;
18449;SDS011;9354;50.194;7.690;2022-08-05T11:22:40;18.70;;;12.17;;
18449;SDS011;9354;50.194;7.690;2022-08-05T11:25:31;17.10;;;11.67;;
18449;SDS011;9354;50.194;7.690;2022-08-05T11:31:18;18.87;;;11.77;;
18449;SDS011;9354;50.194;7.690;2022-08-05T11:33:53;18.87;;;11.67;;
18449;SDS011;9354;50.194;7.690;2022-08-05T11:36:39;14.53;;;10.57;;
18449;SDS011;9354;50.194;7.690;2022-08-05T11:39:14;14.80;;;10.40;;
18449;SDS011;9354;50.194;7.690;2022-08-05T11:41:51;15.10;;;10.40;;
18449;SDS011;9354;50.194;7.690;2022-08-05T11:44:19;16.60;;;11.10;;
18449;SDS011;9354;50.194;7.690;2022-08-05T11:46:47;13.77;;;10.27;;
18449;SDS011;9354;50.194;7.690;2022-08-05T11:49:17;16.10;;;10.17;;
18449;SDS011;9354;50.194;7.690;2022-08-05T11:51:46;14.40;;;9.50;;
18449;SDS011;9354;50.194;7.690;2022-08-05T11:54:22;16.30;;;10.73;;
18449;SDS011;9354;50.194;7.690;2022-08-05T11:56:53;19.33;;;10.90;;
18449;SDS011;9354;50.194;7.690;2022-08-05T11:59:22;17.27;;;10.47;;
18449;SDS011;9354;50.194;7.690;2022-08-05T12:01:55;15.43;;;9.63;;
18449;SDS011;9354;50.194;7.690;2022-08-05T12:04:24;18.63;;;10.20;;
18449;SDS011;9354;50.194;7.690;2022-08-05T12:06:53;17.37;;;9.50;;
18449;SDS011;9354;50.194;7.690;2022-08-05T12:09:23;15.60;;;9.67;;
18449;SDS011;9354;50.194;7.690;2022-08-05T12:11:53;18.50;;;11.23;;
18449;SDS011;9354;50.194;7.690;2022-08-05T12:14:21;22.40;;;11.13;;
18449;SDS011;9354;50.194;7.690;2022-08-05T12:16:49;15.73;;;10.53;;
18449;SDS011;9354;50.194;7.690;2022-08-05T12:19:17;20.07;;;12.10;;
18449;SDS011;9354;50.194;7.690;2022-08-05T12:21:48;19.97;;;11.80;;
18449;SDS011;9354;50.194;7.690;2022-08-05T12:24:17;24.93;;;14.83;;
18449;SDS011;9354;50.194;7.690;2022-08-05T12:26:46;31.13;;;18.43;;
18449;SDS011;9354;50.194;7.690;2022-08-05T12:29:16;30.33;;;18.20;;
18449;SDS011;9354;50.194;7.690;2022-08-05T12:31:46;33.43;;;20.63;;
18449;SDS011;9354;50.194;7.690;2022-08-05T12:34:15;36.10;;;21.70;;
18449;SDS011;9354;50.194;7.690;2022-08-05T12:36:44;30.27;;;19.03;;
18449;SDS011;9354;50.194;7.690;2022-08-05T12:39:12;35.03;;;21.03;;
18449;SDS011;9354;50.194;7.690;2022-08-05T12:41:43;33.57;;;19.70;;
18449;SDS011;9354;50.194;7.690;2022-08-05T12:44:12;32.40;;;19.40;;
18449;SDS011;9354;50.194;7.690;2022-08-05T12:46:50;39.43;;;23.13;;
18449;SDS011;9354;50.194;7.690;2022-08-05T12:49:18;39.57;;;23.53;;
18449;SDS011;9354;50.194;7.690;2022-08-05T12:51:48;42.03;;;25.30;;
18449;SDS011;9354;50.194;7.690;2022-08-05T12:54:20;47.07;;;27.03;;
18449;SDS011;9354;50.194;7.690;2022-08-05T12:56:49;46.73;;;26.10;;
18449;SDS011;9354;50.194;7.690;2022-08-05T12:59:19;45.37;;;25.97;;
18449;SDS011;9354;50.194;7.690;2022-08-05T13:01:55;37.53;;;23.90;;
18449;SDS011;9354;50.194;7.690;2022-08-05T13:04:25;39.23;;;24.40;;
18449;SDS011;9354;50.194;7.690;2022-08-05T13:06:55;40.73;;;25.27;;
18449;SDS011;9354;50.194;7.690;2022-08-05T13:09:23;36.80;;;23.57;;
18449;SDS011;9354;50.194;7.690;2022-08-05T13:11:55;40.30;;;23.40;;
18449;SDS011;9354;50.194;7.690;2022-08-05T13:14:33;35.93;;;23.13;;
18449;SDS011;9354;50.194;7.690;2022-08-05T13:17:06;38.13;;;23.83;;
18449;SDS011;9354;50.194;7.690;2022-08-05T13:19:35;37.30;;;22.40;;
18449;SDS011;9354;50.194;7.690;2022-08-05T13:22:05;32.10;;;20.67;;
18449;SDS011;9354;50.194;7.690;2022-08-05T13:24:33;32.63;;;19.83;;
18449;SDS011;9354;50.194;7.690;2022-08-05T13:27:00;25.87;;;17.90;;
18449;SDS011;9354;50.194;7.690;2022-08-05T13:29:27;23.40;;;14.70;;
18449;SDS011;9354;50.194;7.690;2022-08-05T13:31:55;23.30;;;15.67;;
18449;SDS011;9354;50.194;7.690;2022-08-05T13:34:24;22.67;;;15.03;;
18449;SDS011;9354;50.194;7.690;2022-08-05T13:36:52;22.93;;;14.77;;
18449;SDS011;9354;50.194;7.690;2022-08-05T13:39:19;22.33;;;14.70;;
18449;SDS011;9354;50.194;7.690;2022-08-05T13:41:47;19.37;;;13.60;;
18449;SDS011;9354;50.194;7.690;2022-08-05T13:44:14;19.97;;;13.50;;
18449;SDS011;9354;50.194;7.690;2022-08-05T13:46:41;20.20;;;13.37;;
18449;SDS011;9354;50.194;7.690;2022-08-05T13:49:09;19.43;;;12.17;;
18449;SDS011;9354;50.194;7.690;2022-08-05T13:51:38;13.10;;;9.80;;
18449;SDS011;9354;50.194;7.690;2022-08-05T13:54:07;14.17;;;8.90;;
18449;SDS011;9354;50.194;7.690;2022-08-05T13:56:34;14.90;;;8.90;;
18449;SDS011;9354;50.194;7.690;2022-08-05T13:59:02;14.40;;;7.30;;
18449;SDS011;9354;50.194;7.690;2022-08-05T14:01:29;14.30;;;8.20;;
18449;SDS011;9354;50.194;7.690;2022-08-05T14:03:56;11.03;;;6.93;;
18449;SDS011;9354;50.194;7.690;2022-08-05T14:06:43;9.57;;;6.70;;
18449;SDS011;9354;50.194;7.690;2022-08-05T14:09:10;10.33;;;6.53;;
18449;SDS011;9354;50.194;7.690;2022-08-05T14:11:37;9.30;;;5.87;;
18449;SDS011;9354;50.194;7.690;2022-08-05T14:14:06;9.70;;;5.07;;
18449;SDS011;9354;50.194;7.690;2022-08-05T14:16:33;5.97;;;4.37;;
18449;SDS011;9354;50.194;7.690;2022-08-05T14:19:02;6.47;;;3.80;;
18449;SDS011;9354;50.194;7.690;2022-08-05T14:21:30;4.60;;;3.40;;
18449;SDS011;9354;50.194;7.690;2022-08-05T14:23:59;7.20;;;3.30;;
18449;SDS011;9354;50.194;7.690;2022-08-05T14:26:26;4.20;;;2.57;;
18449;SDS011;9354;50.194;7.690;2022-08-05T14:28:53;3.83;;;3.00;;
18449;SDS011;9354;50.194;7.690;2022-08-05T14:31:21;4.93;;;2.43;;
18449;SDS011;9354;50.194;7.690;2022-08-05T14:33:48;8.33;;;2.60;;
18449;SDS011;9354;50.194;7.690;2022-08-05T14:36:15;4.97;;;2.80;;
18449;SDS011;9354;50.194;7.690;2022-08-05T14:38:43;6.37;;;2.77;;
18449;SDS011;9354;50.194;7.690;2022-08-05T14:41:12;5.23;;;2.43;;
18449;SDS011;9354;50.194;7.690;2022-08-05T14:43:39;3.83;;;2.43;;
18449;SDS011;9354;50.194;7.690;2022-08-05T14:46:06;4.97;;;2.47;;
18449;SDS011;9354;50.194;7.690;2022-08-05T14:48:34;3.17;;;2.30;;
18449;SDS011;9354;50.194;7.690;2022-08-05T14:51:01;7.43;;;2.37;;
18449;SDS011;9354;50.194;7.690;2022-08-05T14:53:29;2.70;;;1.70;;
18449;SDS011;9354;50.194;7.690;2022-08-05T14:55:56;5.23;;;2.30;;
18449;SDS011;9354;50.194;7.690;2022-08-05T14:58:25;4.03;;;1.97;;
18449;SDS011;9354;50.194;7.690;2022-08-05T15:00:52;4.47;;;1.97;;
18449;SDS011;9354;50.194;7.690;2022-08-05T15:03:20;4.13;;;2.17;;
18449;SDS011;9354;50.194;7.690;2022-08-05T15:05:47;3.67;;;2.37;;
18449;SDS011;9354;50.194;7.690;2022-08-05T15:08:14;6.07;;;1.80;;
18449;SDS011;9354;50.194;7.690;2022-08-05T15:10:42;7.33;;;2.67;;
18449;SDS011;9354;50.194;7.690;2022-08-05T15:13:09;5.07;;;2.20;;